createdAt,value
2022-09-03T00:00:37.914Z,0.80
2022-09-03T00:03:23.190Z,0.93
2022-09-03T00:06:18.600Z,0.98
2022-09-03T00:09:18.721Z,0.80
2022-09-03T00:12:11.272Z,0.90
2022-09-03T00:14:47.847Z,0.93
2022-09-03T00:17:21.436Z,0.88
2022-09-03T00:20:12.958Z,0.90
2022-09-03T00:25:43.704Z,0.75
2022-09-03T00:28:25.292Z,0.90
2022-09-03T00:31:15.158Z,0.70
2022-09-03T00:33:48.264Z,0.70
2022-09-03T00:36:45.032Z,0.80
2022-09-03T00:39:21.104Z,0.80
2022-09-03T00:42:28.965Z,0.63
2022-09-03T00:45:21.821Z,0.73
2022-09-03T00:48:09.245Z,0.80
2022-09-03T00:51:01.175Z,0.70
2022-09-03T00:56:55.575Z,0.70
2022-09-03T00:59:41.482Z,0.80
2022-09-03T01:02:34.361Z,0.98
2022-09-03T01:05:34.846Z,0.90
2022-09-03T01:08:33.686Z,0.60
2022-09-03T01:11:52.985Z,0.60
2022-09-03T01:15:01.143Z,0.82
2022-09-03T01:17:54.593Z,0.70
2022-09-03T01:21:26.988Z,0.90
2022-09-03T01:24:23.284Z,0.80
2022-09-03T01:27:25.167Z,0.60
2022-09-03T01:30:09.544Z,0.80
2022-09-03T01:33:15.363Z,0.90
2022-09-03T01:36:12.841Z,0.90
2022-09-03T01:38:57.070Z,0.80
2022-09-03T01:42:31.504Z,0.70
2022-09-03T01:45:17.997Z,0.80
2022-09-03T01:48:13.827Z,0.77
2022-09-03T01:50:47.415Z,0.68
2022-09-03T01:54:21.336Z,1.10
2022-09-03T01:57:19.161Z,0.80
2022-09-03T02:00:14.815Z,0.90
2022-09-03T02:02:49.477Z,0.90
2022-09-03T02:05:29.318Z,0.80
2022-09-03T02:08:01.799Z,0.80
2022-09-03T02:10:39.658Z,0.98
2022-09-03T02:13:31.598Z,1.00
2022-09-03T02:16:33.452Z,0.80
2022-09-03T02:19:07.669Z,0.75
2022-09-03T02:21:40.754Z,0.90
2022-09-03T02:24:09.847Z,0.80
2022-09-03T02:26:38.019Z,0.80
2022-09-03T02:29:06.603Z,0.95
2022-09-03T02:31:34.778Z,0.90
2022-09-03T02:34:03.663Z,1.30
2022-09-03T02:36:39.413Z,0.90
2022-09-03T02:39:07.997Z,0.90
2022-09-03T02:41:36.290Z,0.82
2022-09-03T02:44:16.938Z,0.80
2022-09-03T02:46:49.931Z,0.90
2022-09-03T02:49:18.201Z,0.70
2022-09-03T02:51:46.680Z,0.80
2022-09-03T02:54:18.923Z,0.70
2022-09-03T02:56:50.199Z,0.70
2022-09-03T02:59:20.106Z,0.88
2022-09-03T03:01:48.800Z,0.90
2022-09-03T03:04:17.074Z,0.88
2022-09-03T03:06:47.780Z,0.80
2022-09-03T03:09:16.897Z,0.88
2022-09-03T03:11:45.370Z,0.90
2022-09-03T03:14:13.659Z,1.00
2022-09-03T03:16:42.196Z,0.90
2022-09-03T03:19:11.117Z,0.80
2022-09-03T03:21:40.212Z,0.80
2022-09-03T03:24:09.210Z,1.00
2022-09-03T03:26:37.585Z,0.90
2022-09-03T03:29:05.857Z,1.00
2022-09-03T03:31:35.153Z,0.70
2022-09-03T03:34:04.452Z,0.93
2022-09-03T03:36:34.575Z,0.70
2022-09-03T03:39:04.488Z,0.80
2022-09-03T03:41:37.995Z,0.85
2022-09-03T03:44:08.406Z,0.70
2022-09-03T03:46:39.855Z,0.70
2022-09-03T03:49:09.052Z,0.65
2022-09-03T03:51:39.274Z,0.80
2022-09-03T03:56:36.648Z,0.60
2022-09-03T03:59:05.550Z,0.80
2022-09-03T04:01:34.023Z,0.70
2022-09-03T04:04:02.906Z,0.70
2022-09-03T04:06:31.381Z,0.88
2022-09-03T04:08:59.867Z,0.85
2022-09-03T04:11:28.449Z,0.70
2022-09-03T04:13:56.721Z,0.80
2022-09-03T04:16:28.631Z,0.85
2022-09-03T04:18:57.981Z,0.65
2022-09-03T04:21:29.632Z,0.70
2022-09-03T04:23:59.346Z,0.70
2022-09-03T04:26:31.638Z,0.85
2022-09-03T04:29:03.372Z,0.70
2022-09-03T04:31:34.211Z,0.80
2022-09-03T04:34:02.580Z,0.60
2022-09-03T04:36:31.266Z,0.90
2022-09-03T04:39:04.863Z,0.88
2022-09-03T04:41:33.147Z,0.88
2022-09-03T04:44:01.623Z,0.88
2022-09-03T04:46:34.148Z,0.88
2022-09-03T04:49:02.986Z,0.60
2022-09-03T04:51:31.926Z,0.90
2022-09-03T04:54:02.512Z,0.70
2022-09-03T04:56:34.471Z,1.00
2022-09-03T04:59:09.086Z,0.90
2022-09-03T05:01:40.023Z,0.95
2022-09-03T05:04:09.015Z,0.90
2022-09-03T05:06:37.803Z,0.98
2022-09-03T05:09:06.796Z,0.80
2022-09-03T05:11:34.968Z,0.90
2022-09-03T05:14:06.117Z,0.80
2022-09-03T05:16:34.780Z,0.90
2022-09-03T05:19:04.097Z,0.80
2022-09-03T05:21:32.574Z,0.80
2022-09-03T05:24:03.105Z,0.80
2022-09-03T05:26:39.676Z,0.70
2022-09-03T05:29:09.591Z,0.80
2022-09-03T05:31:39.577Z,0.80
2022-09-03T05:34:10.209Z,0.80
2022-09-03T05:36:49.261Z,0.90
2022-09-03T05:39:17.691Z,0.85
2022-09-03T05:41:45.913Z,0.85
2022-09-03T05:44:14.798Z,0.73
2022-09-03T05:46:42.869Z,1.25
2022-09-03T05:49:12.102Z,0.95
2022-09-03T05:51:41.163Z,0.88
2022-09-03T05:54:10.622Z,0.90
2022-09-03T05:56:42.673Z,0.77
2022-09-03T05:59:11.927Z,0.77
2022-09-03T06:01:44.005Z,0.90
2022-09-03T06:04:20.870Z,1.00
2022-09-03T06:06:50.079Z,0.70
2022-09-03T06:09:23.321Z,0.82
2022-09-03T06:11:53.985Z,0.70
2022-09-03T06:14:22.362Z,0.90
2022-09-03T06:16:53.375Z,1.00
2022-09-03T06:19:23.126Z,0.90
2022-09-03T06:21:51.794Z,1.02
2022-09-03T06:24:26.206Z,0.93
2022-09-03T06:27:16.306Z,1.40
2022-09-03T06:29:51.037Z,1.10
2022-09-03T06:32:20.221Z,1.00
2022-09-03T06:34:48.702Z,1.08
2022-09-03T06:37:16.883Z,1.02
2022-09-03T06:39:45.310Z,1.10
2022-09-03T06:42:14.449Z,0.80
2022-09-03T06:44:45.496Z,0.90
2022-09-03T06:47:13.871Z,0.90
2022-09-03T06:49:42.962Z,0.75
2022-09-03T06:52:11.544Z,0.88
2022-09-03T06:54:41.163Z,0.88
2022-09-03T06:57:09.731Z,0.80
2022-09-03T06:59:38.215Z,0.80
2022-09-03T07:02:08.630Z,1.02
2022-09-03T07:04:37.114Z,1.00
2022-09-03T07:07:05.398Z,0.93
2022-09-03T07:09:36.430Z,1.13
2022-09-03T07:12:05.421Z,0.90
2022-09-03T07:14:34.619Z,0.70
2022-09-03T07:17:03.098Z,0.95
2022-09-03T07:19:31.679Z,1.17
2022-09-03T07:22:00.364Z,0.80
2022-09-03T07:24:29.768Z,1.08
2022-09-03T07:26:58.860Z,1.23
2022-09-03T07:29:28.095Z,1.38
2022-09-03T07:31:57.202Z,1.50
2022-09-03T07:34:29.535Z,1.45
2022-09-03T07:37:05.694Z,1.10
2022-09-03T07:39:34.691Z,1.20
2022-09-03T07:42:03.050Z,1.40
2022-09-03T07:44:31.426Z,1.40
2022-09-03T07:47:00.893Z,1.20
2022-09-03T07:49:29.516Z,1.08
2022-09-03T07:51:57.990Z,1.30
2022-09-03T07:54:27.513Z,1.23
2022-09-03T07:56:56.390Z,1.30
2022-09-03T07:59:26.092Z,1.23
2022-09-03T08:01:57.336Z,1.60
2022-09-03T08:04:25.716Z,1.33
2022-09-03T08:06:55.921Z,1.33
2022-09-03T08:09:24.208Z,1.48
2022-09-03T08:11:52.693Z,1.40
2022-09-03T08:14:22.195Z,1.60
2022-09-03T08:16:50.982Z,1.42
2022-09-03T08:19:22.634Z,1.80
2022-09-03T08:21:51.116Z,1.60
2022-09-03T08:24:21.970Z,1.50
2022-09-03T08:26:52.384Z,1.58
2022-09-03T08:29:22.200Z,1.77
2022-09-03T08:31:51.763Z,1.75
2022-09-03T08:34:20.692Z,1.70
2022-09-03T08:36:49.059Z,1.85
2022-09-03T08:39:17.205Z,1.67
2022-09-03T08:41:51.966Z,1.60
2022-09-03T08:44:45.537Z,1.80
2022-09-03T08:47:42.389Z,2.03
2022-09-03T08:50:12.600Z,1.90
2022-09-03T08:53:00.756Z,1.85
2022-09-03T08:55:47.033Z,1.92
2022-09-03T08:58:21.145Z,1.52
2022-09-03T09:01:22.536Z,1.83
2022-09-03T09:04:22.515Z,1.52
2022-09-03T09:07:19.665Z,1.60
2022-09-03T09:10:42.108Z,1.73
2022-09-03T09:14:01.401Z,1.60
2022-09-03T09:17:09.598Z,2.20
2022-09-03T09:20:19.027Z,2.20
2022-09-03T09:22:59.386Z,3.10
2022-09-03T09:25:30.325Z,2.22
2022-09-03T09:28:13.452Z,3.65
2022-09-03T09:30:43.052Z,5.90
2022-09-03T09:33:12.658Z,2.60
2022-09-03T09:35:43.084Z,2.40
2022-09-03T09:38:13.101Z,2.30
2022-09-03T09:40:45.885Z,2.08
2022-09-03T09:43:21.231Z,2.00
2022-09-03T09:45:52.672Z,2.17
2022-09-03T09:51:14.104Z,3.33
2022-09-03T09:53:45.043Z,3.08
2022-09-03T09:56:26.018Z,3.00
2022-09-03T09:59:11.081Z,2.33
2022-09-03T10:01:42.988Z,2.20
2022-09-03T10:04:14.600Z,2.35
2022-09-03T10:07:00.183Z,2.58
2022-09-03T10:09:31.926Z,2.10
2022-09-03T10:12:24.682Z,2.33
2022-09-03T10:15:24.702Z,1.95
2022-09-03T10:18:11.410Z,1.75
2022-09-03T10:21:02.006Z,1.77
2022-09-03T10:23:39.703Z,1.97
2022-09-03T10:26:17.300Z,1.83
2022-09-03T10:28:56.775Z,1.80
2022-09-03T10:32:07.809Z,1.92
2022-09-03T10:35:00.458Z,2.10
2022-09-03T10:37:47.570Z,2.13
2022-09-03T10:40:40.332Z,1.90
2022-09-03T10:43:42.210Z,1.90
2022-09-03T10:49:32.593Z,1.67
2022-09-03T10:52:12.767Z,2.08
2022-09-03T10:55:05.904Z,1.95
2022-09-03T10:58:28.580Z,1.88
2022-09-03T11:01:44.917Z,1.95
2022-09-03T11:04:55.115Z,2.10
2022-09-03T11:07:38.033Z,1.55
2022-09-03T11:10:39.997Z,1.92
2022-09-03T11:13:54.145Z,2.00
2022-09-03T11:16:29.895Z,1.90
2022-09-03T11:19:08.003Z,1.90
2022-09-03T11:21:42.009Z,1.67
2022-09-03T11:24:23.187Z,2.05
2022-09-03T11:27:00.906Z,1.83
2022-09-03T11:29:54.045Z,1.90
2022-09-03T11:32:55.475Z,2.10
2022-09-03T11:35:42.828Z,1.70
2022-09-03T11:38:18.259Z,2.00
2022-09-03T11:41:15.820Z,1.83
2022-09-03T11:43:45.324Z,1.70
2022-09-03T11:46:23.716Z,1.90
2022-09-03T11:49:04.608Z,2.03
2022-09-03T11:51:39.742Z,1.70
2022-09-03T11:54:13.752Z,2.00
2022-09-03T11:56:43.561Z,1.75
2022-09-03T11:59:24.842Z,2.10
2022-09-03T12:02:31.981Z,2.10
2022-09-03T12:05:26.110Z,1.90
2022-09-03T12:08:22.032Z,1.90
2022-09-03T12:10:55.032Z,2.30
2022-09-03T12:13:37.012Z,1.90
2022-09-03T12:16:20.267Z,1.83
2022-09-03T12:18:53.160Z,2.03
2022-09-03T12:21:21.729Z,1.92
2022-09-03T12:23:58.161Z,1.90
2022-09-03T12:26:28.310Z,1.80
2022-09-03T12:29:29.027Z,1.73
2022-09-03T12:32:19.930Z,1.80
2022-09-03T12:34:53.224Z,1.92
2022-09-03T12:40:28.447Z,1.85
2022-09-03T12:46:10.125Z,2.13
2022-09-03T12:48:43.634Z,2.08
2022-09-03T12:54:03.206Z,2.00
2022-09-03T12:56:33.910Z,1.95
2022-09-03T12:59:14.679Z,2.20
2022-09-03T13:01:51.851Z,2.08
2022-09-03T13:04:32.731Z,2.25
2022-09-03T13:07:14.111Z,2.00
2022-09-03T13:09:43.306Z,1.90
2022-09-03T13:12:43.735Z,1.70
2022-09-03T13:15:22.559Z,1.85
2022-09-03T13:18:05.474Z,2.20
2022-09-03T13:20:55.259Z,2.45
2022-09-03T13:23:41.960Z,1.98
2022-09-03T13:26:41.569Z,1.95
2022-09-03T13:29:45.993Z,2.30
2022-09-03T13:33:01.087Z,2.28
2022-09-03T13:36:05.386Z,2.00
2022-09-03T13:38:44.413Z,2.03
2022-09-03T13:41:46.892Z,1.80
2022-09-03T13:44:58.605Z,1.90
2022-09-03T13:48:09.876Z,1.70
2022-09-03T13:50:59.115Z,1.88
2022-09-03T13:54:05.206Z,1.88
2022-09-03T13:57:20.978Z,1.90
2022-09-03T13:59:58.193Z,1.80
2022-09-03T14:03:16.262Z,1.73
2022-09-03T14:06:27.178Z,1.70
2022-09-03T14:09:07.870Z,1.80
2022-09-03T14:11:55.370Z,1.88
2022-09-03T14:14:49.861Z,1.77
2022-09-03T14:17:47.422Z,2.00
2022-09-03T14:20:26.140Z,2.10
2022-09-03T14:23:07.216Z,2.08
2022-09-03T14:25:36.517Z,2.15
2022-09-03T14:28:37.369Z,2.38
2022-09-03T14:31:56.677Z,2.45
2022-09-03T14:34:52.454Z,2.20
2022-09-03T14:38:17.559Z,2.50
2022-09-03T14:41:12.858Z,2.70
2022-09-03T14:43:52.605Z,2.60
2022-09-03T14:46:45.560Z,2.80
2022-09-03T14:50:01.550Z,4.00
2022-09-03T14:52:54.915Z,3.15
2022-09-03T14:55:28.511Z,3.72
2022-09-03T14:58:38.670Z,3.45
2022-09-03T15:01:38.540Z,3.92
2022-09-03T15:04:33.933Z,4.07
2022-09-03T15:08:01.220Z,4.50
2022-09-03T15:10:37.772Z,4.32
2022-09-03T15:13:26.293Z,4.55
2022-09-03T15:16:54.082Z,4.07
2022-09-03T15:19:54.341Z,3.72
2022-09-03T15:22:49.907Z,3.50
2022-09-03T15:25:49.936Z,3.70
2022-09-03T15:28:34.443Z,4.10
2022-09-03T15:31:47.184Z,3.70
2022-09-03T15:34:32.867Z,3.85
2022-09-03T15:37:07.248Z,4.25
2022-09-03T15:39:41.627Z,4.28
2022-09-03T15:42:23.792Z,4.35
2022-09-03T15:45:18.085Z,4.25
2022-09-03T15:47:52.017Z,4.32
2022-09-03T15:50:33.167Z,4.00
2022-09-03T15:53:34.105Z,3.60
2022-09-03T15:56:29.326Z,2.83
2022-09-03T15:59:15.830Z,2.58
2022-09-03T16:02:24.831Z,2.58
2022-09-03T16:04:57.335Z,2.13
2022-09-03T16:07:40.159Z,1.90
2022-09-03T16:10:26.835Z,1.30
2022-09-03T16:13:25.491Z,1.00
2022-09-03T16:16:03.976Z,1.00
2022-09-03T16:18:52.573Z,0.90
2022-09-03T16:22:15.743Z,0.73
2022-09-03T16:25:13.903Z,0.75
2022-09-03T16:28:17.346Z,0.60
2022-09-03T16:31:15.238Z,0.50
2022-09-03T16:34:33.655Z,0.52
2022-09-03T16:37:53.302Z,0.60
2022-09-03T16:40:53.805Z,0.60
2022-09-03T16:43:40.661Z,0.50
2022-09-03T16:46:36.071Z,0.40
2022-09-03T16:49:22.042Z,0.40
2022-09-03T16:52:38.862Z,0.50
2022-09-03T16:55:25.424Z,0.40
2022-09-03T16:58:27.272Z,0.50
2022-09-03T17:01:07.634Z,0.50
2022-09-03T17:04:04.354Z,0.47
2022-09-03T17:06:57.262Z,0.50
2022-09-03T17:10:26.708Z,0.60
2022-09-03T17:13:17.857Z,0.50
2022-09-03T17:15:53.379Z,0.40
2022-09-03T17:18:50.708Z,0.60
2022-09-03T17:22:04.479Z,0.68
2022-09-03T17:25:05.957Z,0.40
2022-09-03T17:28:15.449Z,0.47
2022-09-03T17:31:16.666Z,0.50
2022-09-03T17:34:39.639Z,0.50
2022-09-03T17:37:52.328Z,0.60
2022-09-03T17:43:15.813Z,0.40
2022-09-03T17:46:09.347Z,0.60
2022-09-03T17:48:53.217Z,0.63
2022-09-03T17:51:58.612Z,0.55
2022-09-03T17:54:52.033Z,0.55
2022-09-03T17:57:31.468Z,0.50
2022-09-03T18:00:08.759Z,0.50
2022-09-03T18:03:05.352Z,0.65
2022-09-03T18:06:37.199Z,0.60
2022-09-03T18:09:17.835Z,0.50
2022-09-03T18:11:55.086Z,0.63
2022-09-03T18:14:48.271Z,0.55
2022-09-03T18:17:37.863Z,0.60
2022-09-03T18:20:33.054Z,0.63
2022-09-03T18:23:49.270Z,0.60
2022-09-03T18:26:48.039Z,0.70
2022-09-03T18:29:54.212Z,0.70
2022-09-03T18:32:41.766Z,0.80
2022-09-03T18:35:30.443Z,1.15
2022-09-03T18:38:17.603Z,0.80
2022-09-03T18:41:32.396Z,0.98
2022-09-03T18:45:18.556Z,1.00
2022-09-03T18:48:49.408Z,0.75
2022-09-03T18:51:48.439Z,0.80
2022-09-03T18:54:57.213Z,1.08
2022-09-03T18:58:01.553Z,0.80
2022-09-03T19:00:54.280Z,1.10
2022-09-03T19:04:20.481Z,0.90
2022-09-03T19:07:38.424Z,0.80
2022-09-03T19:10:41.205Z,0.90
2022-09-03T19:13:46.486Z,0.80
2022-09-03T19:16:55.936Z,1.00
2022-09-03T19:20:28.828Z,0.70
2022-09-03T19:23:15.689Z,0.60
2022-09-03T19:26:02.986Z,0.85
2022-09-03T19:28:51.190Z,0.82
2022-09-03T19:32:00.416Z,0.80
2022-09-03T19:35:31.370Z,1.00
2022-09-03T19:38:58.763Z,0.85
2022-09-03T19:42:06.400Z,1.00
2022-09-03T19:45:44.955Z,1.10
2022-09-03T19:49:00.740Z,0.95
2022-09-03T19:52:26.020Z,1.00
2022-09-03T19:55:16.311Z,1.10
2022-09-03T19:58:26.127Z,0.90
2022-09-03T20:01:18.529Z,0.85
2022-09-03T20:04:05.393Z,1.00
2022-09-03T20:06:55.001Z,1.25
2022-09-03T20:09:48.041Z,1.05
2022-09-03T20:12:20.326Z,1.00
2022-09-03T20:14:48.412Z,1.00
2022-09-03T20:17:40.644Z,0.88
2022-09-03T20:20:41.988Z,1.10
2022-09-03T20:23:24.255Z,1.20
2022-09-03T20:26:27.102Z,1.30
2022-09-03T20:29:44.720Z,1.10
2022-09-03T20:32:38.536Z,1.08
2022-09-03T20:35:36.736Z,1.00
2022-09-03T20:38:55.127Z,0.95
2022-09-03T20:42:18.717Z,0.90
2022-09-03T20:44:57.349Z,3.53
2022-09-03T20:48:03.612Z,3.70
2022-09-03T20:50:56.517Z,4.00
2022-09-03T20:53:49.182Z,2.08
2022-09-03T20:57:05.718Z,6.85
2022-09-03T20:59:56.147Z,3.65
2022-09-03T21:02:51.773Z,1.70
2022-09-03T21:05:45.258Z,1.30
2022-09-03T21:08:36.697Z,1.35
2022-09-03T21:11:29.752Z,1.30
2022-09-03T21:14:50.697Z,1.00
2022-09-03T21:17:52.308Z,1.05
2022-09-03T21:20:45.467Z,1.00
2022-09-03T21:23:36.742Z,1.23
2022-09-03T21:26:28.392Z,1.20
2022-09-03T21:29:21.436Z,1.00
2022-09-03T21:32:05.854Z,1.10
2022-09-03T21:34:54.968Z,1.08
2022-09-03T21:37:23.891Z,1.10
2022-09-03T21:39:56.959Z,1.00
2022-09-03T21:42:46.348Z,0.90
2022-09-03T21:45:43.572Z,0.93
2022-09-03T21:48:26.623Z,0.77
2022-09-03T21:51:00.851Z,0.90
2022-09-03T21:53:48.141Z,0.93
2022-09-03T21:56:27.731Z,1.08
2022-09-03T21:59:23.768Z,1.10
2022-09-03T22:02:21.629Z,1.08
2022-09-03T22:04:51.014Z,1.38
2022-09-03T22:07:59.424Z,1.35
2022-09-03T22:11:06.936Z,1.17
2022-09-03T22:14:09.950Z,1.23
2022-09-03T22:17:10.902Z,1.38
2022-09-03T22:19:40.410Z,1.10
2022-09-03T22:22:44.362Z,0.98
2022-09-03T22:25:33.169Z,0.88
2022-09-03T22:28:42.339Z,0.88
2022-09-03T22:31:35.795Z,0.80
2022-09-03T22:34:38.814Z,1.00
2022-09-03T22:37:28.571Z,1.08
2022-09-03T22:40:28.462Z,1.20
2022-09-03T22:43:02.011Z,1.30
2022-09-03T22:45:59.119Z,1.02
2022-09-03T22:49:29.838Z,1.13
2022-09-03T22:52:19.938Z,1.10
2022-09-03T22:55:21.347Z,1.35
2022-09-03T22:58:08.815Z,1.50
2022-09-03T23:00:54.694Z,1.15
2022-09-03T23:04:19.903Z,1.00
2022-09-03T23:07:18.825Z,1.02
2022-09-03T23:10:23.088Z,0.80
2022-09-03T23:13:16.204Z,1.02
2022-09-03T23:16:01.228Z,1.10
2022-09-03T23:18:32.819Z,1.10
2022-09-03T23:21:16.348Z,1.30
2022-09-03T23:23:59.845Z,1.30
2022-09-03T23:26:44.455Z,1.73
2022-09-03T23:29:44.900Z,1.30
2022-09-03T23:32:12.869Z,1.40
2022-09-03T23:34:42.230Z,1.40
2022-09-03T23:37:39.409Z,1.35
2022-09-03T23:40:33.191Z,1.33
2022-09-03T23:43:17.301Z,1.40
2022-09-03T23:46:10.025Z,1.60
2022-09-03T23:49:16.054Z,1.38
2022-09-03T23:52:11.535Z,1.50
2022-09-03T23:55:09.181Z,1.63
2022-09-03T23:58:08.219Z,1.20
